sensor_id;sensor_type;location;lat;lon;timestamp;P1;durP1;ratioP1;P2;durP2;ratioP2
11839;SDS011;5979;50.800;4.904;2022-12-29T00:01:48;1.65;;;1.20;;
11839;SDS011;5979;50.800;4.904;2022-12-29T00:04:14;1.10;;;1.10;;
11839;SDS011;5979;50.800;4.904;2022-12-29T00:06:40;1.25;;;1.20;;
11839;SDS011;5979;50.800;4.904;2022-12-29T00:09:07;1.27;;;1.20;;
11839;SDS011;5979;50.800;4.904;2022-12-29T00:11:33;1.15;;;1.15;;
11839;SDS011;5979;50.800;4.904;2022-12-29T00:13:59;1.42;;;1.15;;
11839;SDS011;5979;50.800;4.904;2022-12-29T00:16:44;1.23;;;1.20;;
11839;SDS011;5979;50.800;4.904;2022-12-29T00:19:11;1.45;;;1.30;;
11839;SDS011;5979;50.800;4.904;2022-12-29T00:21:56;1.10;;;1.10;;
11839;SDS011;5979;50.800;4.904;2022-12-29T00:24:41;2.08;;;1.08;;
11839;SDS011;5979;50.800;4.904;2022-12-29T00:27:27;1.17;;;1.17;;
11839;SDS011;5979;50.800;4.904;2022-12-29T00:30:12;1.20;;;1.10;;
11839;SDS011;5979;50.800;4.904;2022-12-29T00:33:00;1.30;;;1.20;;
11839;SDS011;5979;50.800;4.904;2022-12-29T00:35:53;1.05;;;1.05;;
11839;SDS011;5979;50.800;4.904;2022-12-29T00:38:24;1.35;;;1.20;;
11839;SDS011;5979;50.800;4.904;2022-12-29T00:41:09;1.40;;;0.98;;
11839;SDS011;5979;50.800;4.904;2022-12-29T00:43:53;1.40;;;1.17;;
11839;SDS011;5979;50.800;4.904;2022-12-29T00:46:34;1.30;;;1.20;;
11839;SDS011;5979;50.800;4.904;2022-12-29T00:49:04;1.73;;;1.08;;
11839;SDS011;5979;50.800;4.904;2022-12-29T00:51:50;2.65;;;1.23;;
11839;SDS011;5979;50.800;4.904;2022-12-29T00:54:16;1.05;;;1.00;;
11839;SDS011;5979;50.800;4.904;2022-12-29T00:56:42;1.58;;;1.30;;
11839;SDS011;5979;50.800;4.904;2022-12-29T00:59:09;1.65;;;1.23;;
11839;SDS011;5979;50.800;4.904;2022-12-29T01:01:35;1.88;;;1.10;;
11839;SDS011;5979;50.800;4.904;2022-12-29T01:04:02;1.92;;;1.20;;
11839;SDS011;5979;50.800;4.904;2022-12-29T01:06:29;1.10;;;1.10;;
11839;SDS011;5979;50.800;4.904;2022-12-29T01:08:54;0.90;;;0.90;;
11839;SDS011;5979;50.800;4.904;2022-12-29T01:11:40;1.83;;;1.52;;
11839;SDS011;5979;50.800;4.904;2022-12-29T01:14:05;2.10;;;1.65;;
11839;SDS011;5979;50.800;4.904;2022-12-29T01:16:32;1.48;;;1.10;;
11839;SDS011;5979;50.800;4.904;2022-12-29T01:18:58;1.30;;;1.30;;
11839;SDS011;5979;50.800;4.904;2022-12-29T01:21:24;4.90;;;1.55;;
11839;SDS011;5979;50.800;4.904;2022-12-29T01:23:50;4.85;;;1.60;;
11839;SDS011;5979;50.800;4.904;2022-12-29T01:26:16;2.55;;;1.48;;
11839;SDS011;5979;50.800;4.904;2022-12-29T01:28:43;2.75;;;1.20;;
11839;SDS011;5979;50.800;4.904;2022-12-29T01:31:09;1.63;;;1.40;;
11839;SDS011;5979;50.800;4.904;2022-12-29T01:33:36;2.67;;;1.63;;
11839;SDS011;5979;50.800;4.904;2022-12-29T01:36:02;1.63;;;1.40;;
11839;SDS011;5979;50.800;4.904;2022-12-29T01:38:29;2.05;;;1.35;;
11839;SDS011;5979;50.800;4.904;2022-12-29T01:40:55;5.38;;;1.92;;
11839;SDS011;5979;50.800;4.904;2022-12-29T01:43:20;1.38;;;1.27;;
11839;SDS011;5979;50.800;4.904;2022-12-29T01:45:52;1.75;;;1.45;;
11839;SDS011;5979;50.800;4.904;2022-12-29T01:48:19;1.67;;;1.58;;
11839;SDS011;5979;50.800;4.904;2022-12-29T01:50:46;1.55;;;1.45;;
11839;SDS011;5979;50.800;4.904;2022-12-29T01:53:25;3.95;;;1.48;;
11839;SDS011;5979;50.800;4.904;2022-12-29T01:55:58;2.33;;;1.50;;
11839;SDS011;5979;50.800;4.904;2022-12-29T01:58:29;1.38;;;1.27;;
11839;SDS011;5979;50.800;4.904;2022-12-29T02:00:58;2.53;;;1.20;;
11839;SDS011;5979;50.800;4.904;2022-12-29T02:03:25;1.48;;;1.38;;
11839;SDS011;5979;50.800;4.904;2022-12-29T02:05:57;2.22;;;1.42;;
11839;SDS011;5979;50.800;4.904;2022-12-29T02:08:28;3.53;;;1.30;;
11839;SDS011;5979;50.800;4.904;2022-12-29T02:10:58;1.98;;;1.05;;
11839;SDS011;5979;50.800;4.904;2022-12-29T02:13:25;1.40;;;1.17;;
11839;SDS011;5979;50.800;4.904;2022-12-29T02:33:12;1.73;;;1.08;;
11839;SDS011;5979;50.800;4.904;2022-12-29T02:41:33;1.23;;;1.13;;
11839;SDS011;5979;50.800;4.904;2022-12-29T02:46:54;1.00;;;0.93;;
11839;SDS011;5979;50.800;4.904;2022-12-29T02:49:31;1.05;;;0.95;;
11839;SDS011;5979;50.800;4.904;2022-12-29T02:52:21;1.83;;;1.00;;
11839;SDS011;5979;50.800;4.904;2022-12-29T02:54:53;1.50;;;0.85;;
11839;SDS011;5979;50.800;4.904;2022-12-29T02:59:50;1.15;;;1.00;;
11839;SDS011;5979;50.800;4.904;2022-12-29T03:13:22;1.50;;;0.93;;
11839;SDS011;5979;50.800;4.904;2022-12-29T03:21:24;1.52;;;1.00;;
11839;SDS011;5979;50.800;4.904;2022-12-29T03:24:13;1.70;;;0.93;;
11839;SDS011;5979;50.800;4.904;2022-12-29T03:26:40;3.30;;;1.23;;
11839;SDS011;5979;50.800;4.904;2022-12-29T03:29:07;1.92;;;1.20;;
11839;SDS011;5979;50.800;4.904;2022-12-29T03:31:35;2.25;;;1.00;;
11839;SDS011;5979;50.800;4.904;2022-12-29T03:34:02;1.58;;;0.98;;
11839;SDS011;5979;50.800;4.904;2022-12-29T03:36:32;1.40;;;0.90;;
11839;SDS011;5979;50.800;4.904;2022-12-29T03:39:06;1.67;;;1.10;;
11839;SDS011;5979;50.800;4.904;2022-12-29T03:41:37;1.15;;;1.00;;
11839;SDS011;5979;50.800;4.904;2022-12-29T03:44:09;1.75;;;1.00;;
11839;SDS011;5979;50.800;4.904;2022-12-29T03:46:36;2.08;;;1.00;;
11839;SDS011;5979;50.800;4.904;2022-12-29T03:49:02;1.95;;;1.00;;
11839;SDS011;5979;50.800;4.904;2022-12-29T03:51:28;2.28;;;1.73;;
11839;SDS011;5979;50.800;4.904;2022-12-29T03:53:53;1.33;;;1.13;;
11839;SDS011;5979;50.800;4.904;2022-12-29T03:56:19;2.72;;;1.00;;
11839;SDS011;5979;50.800;4.904;2022-12-29T03:58:45;2.45;;;1.20;;
11839;SDS011;5979;50.800;4.904;2022-12-29T04:01:10;1.60;;;0.68;;
11839;SDS011;5979;50.800;4.904;2022-12-29T04:03:36;1.48;;;1.10;;
11839;SDS011;5979;50.800;4.904;2022-12-29T04:06:02;2.40;;;0.95;;
11839;SDS011;5979;50.800;4.904;2022-12-29T04:08:27;2.53;;;1.02;;
11839;SDS011;5979;50.800;4.904;2022-12-29T04:10:54;2.60;;;0.90;;
11839;SDS011;5979;50.800;4.904;2022-12-29T04:13:20;2.75;;;1.15;;
11839;SDS011;5979;50.800;4.904;2022-12-29T04:15:45;1.10;;;0.85;;
11839;SDS011;5979;50.800;4.904;2022-12-29T04:18:11;2.00;;;0.70;;
11839;SDS011;5979;50.800;4.904;2022-12-29T04:20:37;0.85;;;0.80;;
11839;SDS011;5979;50.800;4.904;2022-12-29T04:23:22;1.20;;;0.80;;
11839;SDS011;5979;50.800;4.904;2022-12-29T04:25:47;2.30;;;0.85;;
11839;SDS011;5979;50.800;4.904;2022-12-29T04:28:13;0.73;;;0.73;;
11839;SDS011;5979;50.800;4.904;2022-12-29T04:30:40;2.47;;;0.98;;
11839;SDS011;5979;50.800;4.904;2022-12-29T04:33:06;2.63;;;1.00;;
11839;SDS011;5979;50.800;4.904;2022-12-29T04:35:32;1.08;;;0.73;;
11839;SDS011;5979;50.800;4.904;2022-12-29T04:37:57;1.80;;;0.63;;
11839;SDS011;5979;50.800;4.904;2022-12-29T04:40:23;2.45;;;1.00;;
11839;SDS011;5979;50.800;4.904;2022-12-29T04:42:49;2.00;;;0.90;;
11839;SDS011;5979;50.800;4.904;2022-12-29T04:45:15;2.60;;;1.20;;
11839;SDS011;5979;50.800;4.904;2022-12-29T04:47:41;3.05;;;1.00;;
11839;SDS011;5979;50.800;4.904;2022-12-29T04:50:07;1.58;;;0.80;;
11839;SDS011;5979;50.800;4.904;2022-12-29T04:52:33;5.13;;;1.35;;
11839;SDS011;5979;50.800;4.904;2022-12-29T04:54:59;1.63;;;0.93;;
11839;SDS011;5979;50.800;4.904;2022-12-29T04:57:25;3.28;;;1.25;;
11839;SDS011;5979;50.800;4.904;2022-12-29T04:59:50;3.95;;;0.90;;
11839;SDS011;5979;50.800;4.904;2022-12-29T05:02:16;1.20;;;1.20;;
11839;SDS011;5979;50.800;4.904;2022-12-29T05:04:42;2.00;;;1.30;;
11839;SDS011;5979;50.800;4.904;2022-12-29T05:07:08;2.70;;;1.10;;
11839;SDS011;5979;50.800;4.904;2022-12-29T05:09:34;1.95;;;1.02;;
11839;SDS011;5979;50.800;4.904;2022-12-29T05:11:59;1.33;;;1.02;;
11839;SDS011;5979;50.800;4.904;2022-12-29T05:14:25;2.00;;;1.35;;
11839;SDS011;5979;50.800;4.904;2022-12-29T05:16:51;2.72;;;1.25;;
11839;SDS011;5979;50.800;4.904;2022-12-29T05:19:17;1.60;;;1.20;;
11839;SDS011;5979;50.800;4.904;2022-12-29T05:21:43;3.25;;;0.95;;
11839;SDS011;5979;50.800;4.904;2022-12-29T05:24:08;3.58;;;1.20;;
11839;SDS011;5979;50.800;4.904;2022-12-29T05:26:34;1.83;;;1.25;;
11839;SDS011;5979;50.800;4.904;2022-12-29T05:29:00;3.38;;;1.40;;
11839;SDS011;5979;50.800;4.904;2022-12-29T05:31:26;2.25;;;1.00;;
11839;SDS011;5979;50.800;4.904;2022-12-29T05:33:52;6.00;;;1.73;;
11839;SDS011;5979;50.800;4.904;2022-12-29T05:36:18;2.30;;;1.33;;
11839;SDS011;5979;50.800;4.904;2022-12-29T05:38:43;2.35;;;1.17;;
11839;SDS011;5979;50.800;4.904;2022-12-29T05:41:09;4.95;;;1.35;;
11839;SDS011;5979;50.800;4.904;2022-12-29T05:43:35;3.35;;;1.13;;
11839;SDS011;5979;50.800;4.904;2022-12-29T05:46:01;3.90;;;1.20;;
11839;SDS011;5979;50.800;4.904;2022-12-29T05:48:28;5.30;;;1.30;;
11839;SDS011;5979;50.800;4.904;2022-12-29T05:50:54;3.05;;;1.38;;
11839;SDS011;5979;50.800;4.904;2022-12-29T05:53:19;2.97;;;1.67;;
11839;SDS011;5979;50.800;4.904;2022-12-29T05:55:48;2.45;;;1.20;;
11839;SDS011;5979;50.800;4.904;2022-12-29T05:58:15;4.40;;;1.65;;
11839;SDS011;5979;50.800;4.904;2022-12-29T06:00:41;3.20;;;1.20;;
11839;SDS011;5979;50.800;4.904;2022-12-29T06:03:07;6.05;;;2.10;;
11839;SDS011;5979;50.800;4.904;2022-12-29T06:05:33;3.75;;;1.27;;
11839;SDS011;5979;50.800;4.904;2022-12-29T06:07:59;2.35;;;1.48;;
11839;SDS011;5979;50.800;4.904;2022-12-29T06:10:24;3.85;;;1.58;;
11839;SDS011;5979;50.800;4.904;2022-12-29T06:12:50;9.75;;;1.70;;
11839;SDS011;5979;50.800;4.904;2022-12-29T06:15:16;5.90;;;1.52;;
11839;SDS011;5979;50.800;4.904;2022-12-29T06:17:42;6.03;;;1.30;;
11839;SDS011;5979;50.800;4.904;2022-12-29T06:20:08;3.85;;;1.60;;
11839;SDS011;5979;50.800;4.904;2022-12-29T06:22:35;4.90;;;1.60;;
11839;SDS011;5979;50.800;4.904;2022-12-29T06:25:01;3.20;;;1.30;;
11839;SDS011;5979;50.800;4.904;2022-12-29T06:27:27;3.10;;;1.48;;
11839;SDS011;5979;50.800;4.904;2022-12-29T06:29:53;6.35;;;1.67;;
11839;SDS011;5979;50.800;4.904;2022-12-29T06:32:19;4.60;;;1.75;;
11839;SDS011;5979;50.800;4.904;2022-12-29T06:34:44;3.90;;;1.42;;
11839;SDS011;5979;50.800;4.904;2022-12-29T06:37:10;3.55;;;1.40;;
11839;SDS011;5979;50.800;4.904;2022-12-29T06:39:36;6.22;;;1.65;;
11839;SDS011;5979;50.800;4.904;2022-12-29T06:42:02;5.32;;;1.83;;
11839;SDS011;5979;50.800;4.904;2022-12-29T06:44:28;5.38;;;1.73;;
11839;SDS011;5979;50.800;4.904;2022-12-29T06:46:54;3.10;;;1.48;;
11839;SDS011;5979;50.800;4.904;2022-12-29T06:49:20;3.03;;;1.40;;
11839;SDS011;5979;50.800;4.904;2022-12-29T06:51:46;2.63;;;1.27;;
11839;SDS011;5979;50.800;4.904;2022-12-29T06:54:12;2.95;;;1.23;;
11839;SDS011;5979;50.800;4.904;2022-12-29T06:56:37;5.15;;;1.67;;
11839;SDS011;5979;50.800;4.904;2022-12-29T06:59:03;6.45;;;1.40;;
11839;SDS011;5979;50.800;4.904;2022-12-29T07:01:29;2.83;;;1.60;;
11839;SDS011;5979;50.800;4.904;2022-12-29T07:03:55;4.00;;;1.30;;
11839;SDS011;5979;50.800;4.904;2022-12-29T07:06:21;3.17;;;1.33;;
11839;SDS011;5979;50.800;4.904;2022-12-29T07:08:46;6.70;;;1.60;;
11839;SDS011;5979;50.800;4.904;2022-12-29T07:11:12;2.90;;;1.38;;
11839;SDS011;5979;50.800;4.904;2022-12-29T07:13:38;4.55;;;1.55;;
11839;SDS011;5979;50.800;4.904;2022-12-29T07:16:07;2.40;;;1.60;;
11839;SDS011;5979;50.800;4.904;2022-12-29T07:18:34;4.28;;;1.42;;
11839;SDS011;5979;50.800;4.904;2022-12-29T07:20:59;7.53;;;1.65;;
11839;SDS011;5979;50.800;4.904;2022-12-29T07:23:25;4.15;;;1.92;;
11839;SDS011;5979;50.800;4.904;2022-12-29T07:25:58;2.60;;;1.73;;
11839;SDS011;5979;50.800;4.904;2022-12-29T07:28:28;2.90;;;1.40;;
11839;SDS011;5979;50.800;4.904;2022-12-29T07:30:54;6.90;;;1.50;;
11839;SDS011;5979;50.800;4.904;2022-12-29T07:33:20;5.25;;;1.98;;
11839;SDS011;5979;50.800;4.904;2022-12-29T07:35:46;6.75;;;1.80;;
11839;SDS011;5979;50.800;4.904;2022-12-29T07:38:12;2.63;;;1.80;;
11839;SDS011;5979;50.800;4.904;2022-12-29T07:40:38;6.60;;;1.50;;
11839;SDS011;5979;50.800;4.904;2022-12-29T07:43:03;3.30;;;1.63;;
11839;SDS011;5979;50.800;4.904;2022-12-29T07:45:29;2.35;;;1.20;;
11839;SDS011;5979;50.800;4.904;2022-12-29T07:47:55;4.70;;;1.73;;
11839;SDS011;5979;50.800;4.904;2022-12-29T07:50:21;5.50;;;1.60;;
11839;SDS011;5979;50.800;4.904;2022-12-29T07:52:46;7.75;;;2.17;;
11839;SDS011;5979;50.800;4.904;2022-12-29T07:55:13;4.10;;;1.90;;
11839;SDS011;5979;50.800;4.904;2022-12-29T07:57:39;5.93;;;1.75;;
11839;SDS011;5979;50.800;4.904;2022-12-29T08:00:06;7.60;;;2.35;;
11839;SDS011;5979;50.800;4.904;2022-12-29T08:02:32;4.53;;;1.65;;
11839;SDS011;5979;50.800;4.904;2022-12-29T08:04:57;5.32;;;1.65;;
11839;SDS011;5979;50.800;4.904;2022-12-29T08:07:23;8.38;;;2.28;;
11839;SDS011;5979;50.800;4.904;2022-12-29T08:09:49;4.68;;;1.63;;
11839;SDS011;5979;50.800;4.904;2022-12-29T08:12:14;6.40;;;1.90;;
11839;SDS011;5979;50.800;4.904;2022-12-29T08:14:40;7.93;;;2.17;;
11839;SDS011;5979;50.800;4.904;2022-12-29T08:17:06;3.40;;;1.70;;
11839;SDS011;5979;50.800;4.904;2022-12-29T08:19:31;3.22;;;1.63;;
11839;SDS011;5979;50.800;4.904;2022-12-29T08:21:57;3.75;;;1.60;;
11839;SDS011;5979;50.800;4.904;2022-12-29T08:24:23;6.75;;;1.70;;
11839;SDS011;5979;50.800;4.904;2022-12-29T08:26:48;6.28;;;1.80;;
11839;SDS011;5979;50.800;4.904;2022-12-29T08:29:14;5.10;;;1.80;;
11839;SDS011;5979;50.800;4.904;2022-12-29T08:31:39;4.53;;;1.70;;
11839;SDS011;5979;50.800;4.904;2022-12-29T08:34:05;4.68;;;1.92;;
11839;SDS011;5979;50.800;4.904;2022-12-29T08:36:31;6.25;;;1.65;;
11839;SDS011;5979;50.800;4.904;2022-12-29T08:38:57;6.15;;;1.75;;
11839;SDS011;5979;50.800;4.904;2022-12-29T08:41:23;5.18;;;1.90;;
11839;SDS011;5979;50.800;4.904;2022-12-29T08:43:49;8.23;;;2.05;;
11839;SDS011;5979;50.800;4.904;2022-12-29T08:46:15;6.05;;;1.73;;
11839;SDS011;5979;50.800;4.904;2022-12-29T08:48:41;7.68;;;2.65;;
11839;SDS011;5979;50.800;4.904;2022-12-29T08:51:07;4.60;;;1.88;;
11839;SDS011;5979;50.800;4.904;2022-12-29T08:53:33;9.00;;;1.85;;
11839;SDS011;5979;50.800;4.904;2022-12-29T08:55:59;13.27;;;2.17;;
11839;SDS011;5979;50.800;4.904;2022-12-29T08:58:25;5.30;;;1.90;;
11839;SDS011;5979;50.800;4.904;2022-12-29T09:00:52;5.63;;;2.10;;
11839;SDS011;5979;50.800;4.904;2022-12-29T09:03:19;4.25;;;1.95;;
11839;SDS011;5979;50.800;4.904;2022-12-29T09:05:49;6.38;;;1.70;;
11839;SDS011;5979;50.800;4.904;2022-12-29T09:08:16;4.32;;;1.80;;
11839;SDS011;5979;50.800;4.904;2022-12-29T09:10:43;8.30;;;2.42;;
11839;SDS011;5979;50.800;4.904;2022-12-29T09:13:10;3.97;;;1.90;;
11839;SDS011;5979;50.800;4.904;2022-12-29T09:15:36;5.55;;;2.20;;
11839;SDS011;5979;50.800;4.904;2022-12-29T09:18:03;4.60;;;1.85;;
11839;SDS011;5979;50.800;4.904;2022-12-29T09:20:28;6.80;;;2.33;;
11839;SDS011;5979;50.800;4.904;2022-12-29T09:22:54;6.72;;;1.83;;
11839;SDS011;5979;50.800;4.904;2022-12-29T09:25:20;9.13;;;2.45;;
11839;SDS011;5979;50.800;4.904;2022-12-29T09:27:47;8.20;;;1.92;;
11839;SDS011;5979;50.800;4.904;2022-12-29T09:30:13;9.23;;;2.92;;
11839;SDS011;5979;50.800;4.904;2022-12-29T09:32:39;8.35;;;2.13;;
11839;SDS011;5979;50.800;4.904;2022-12-29T09:35:05;5.32;;;1.58;;
11839;SDS011;5979;50.800;4.904;2022-12-29T09:37:31;7.15;;;2.00;;
11839;SDS011;5979;50.800;4.904;2022-12-29T09:39:57;7.53;;;1.92;;
11839;SDS011;5979;50.800;4.904;2022-12-29T09:42:24;7.10;;;1.90;;
11839;SDS011;5979;50.800;4.904;2022-12-29T09:47:35;4.88;;;2.20;;
11839;SDS011;5979;50.800;4.904;2022-12-29T09:50:03;6.63;;;2.40;;
11839;SDS011;5979;50.800;4.904;2022-12-29T09:52:36;6.38;;;1.98;;
11839;SDS011;5979;50.800;4.904;2022-12-29T09:55:16;4.85;;;1.88;;
11839;SDS011;5979;50.800;4.904;2022-12-29T09:57:56;8.55;;;2.67;;
11839;SDS011;5979;50.800;4.904;2022-12-29T10:00:33;10.23;;;2.58;;
11839;SDS011;5979;50.800;4.904;2022-12-29T10:03:17;8.02;;;2.58;;
11839;SDS011;5979;50.800;4.904;2022-12-29T10:13:45;6.47;;;2.60;;
11839;SDS011;5979;50.800;4.904;2022-12-29T10:24:34;7.40;;;2.50;;
11839;SDS011;5979;50.800;4.904;2022-12-29T10:27:05;6.68;;;2.20;;
11839;SDS011;5979;50.800;4.904;2022-12-29T10:29:44;5.60;;;2.10;;
11839;SDS011;5979;50.800;4.904;2022-12-29T10:35:05;12.15;;;2.75;;
11839;SDS011;5979;50.800;4.904;2022-12-29T10:40:43;8.15;;;2.40;;
11839;SDS011;5979;50.800;4.904;2022-12-29T10:43:25;7.03;;;2.00;;
11839;SDS011;5979;50.800;4.904;2022-12-29T10:45:59;10.55;;;2.70;;
11839;SDS011;5979;50.800;4.904;2022-12-29T10:48:32;7.80;;;2.35;;
11839;SDS011;5979;50.800;4.904;2022-12-29T10:51:00;5.15;;;1.98;;
11839;SDS011;5979;50.800;4.904;2022-12-29T10:59:30;6.05;;;1.88;;
11839;SDS011;5979;50.800;4.904;2022-12-29T11:07:22;8.18;;;2.33;;
11839;SDS011;5979;50.800;4.904;2022-12-29T11:09:48;3.75;;;1.60;;
11839;SDS011;5979;50.800;4.904;2022-12-29T11:12:32;4.95;;;2.30;;
11839;SDS011;5979;50.800;4.904;2022-12-29T11:17:44;9.93;;;2.92;;
11839;SDS011;5979;50.800;4.904;2022-12-29T11:20:27;4.25;;;2.08;;
11839;SDS011;5979;50.800;4.904;2022-12-29T11:22:59;7.38;;;2.42;;
11839;SDS011;5979;50.800;4.904;2022-12-29T11:25:25;4.25;;;2.00;;
11839;SDS011;5979;50.800;4.904;2022-12-29T11:28:02;4.70;;;1.80;;
11839;SDS011;5979;50.800;4.904;2022-12-29T11:30:39;3.33;;;1.70;;
11839;SDS011;5979;50.800;4.904;2022-12-29T11:33:04;4.20;;;2.40;;
11839;SDS011;5979;50.800;4.904;2022-12-29T11:37:58;7.30;;;2.20;;
11839;SDS011;5979;50.800;4.904;2022-12-29T11:40:24;7.25;;;2.45;;
11839;SDS011;5979;50.800;4.904;2022-12-29T11:42:51;6.07;;;2.13;;
11839;SDS011;5979;50.800;4.904;2022-12-29T11:48:16;4.38;;;1.85;;
11839;SDS011;5979;50.800;4.904;2022-12-29T11:50:49;4.63;;;1.58;;
11839;SDS011;5979;50.800;4.904;2022-12-29T11:53:24;3.50;;;1.85;;
11839;SDS011;5979;50.800;4.904;2022-12-29T11:56:15;4.30;;;1.70;;
11839;SDS011;5979;50.800;4.904;2022-12-29T11:58:43;5.32;;;1.83;;
11839;SDS011;5979;50.800;4.904;2022-12-29T12:04:03;3.28;;;1.75;;
11839;SDS011;5979;50.800;4.904;2022-12-29T12:06:43;5.97;;;2.10;;
11839;SDS011;5979;50.800;4.904;2022-12-29T12:09:25;4.75;;;1.70;;
11839;SDS011;5979;50.800;4.904;2022-12-29T12:15:12;5.88;;;1.73;;
11839;SDS011;5979;50.800;4.904;2022-12-29T12:23:10;3.95;;;2.20;;
11839;SDS011;5979;50.800;4.904;2022-12-29T12:25:38;7.05;;;1.60;;
11839;SDS011;5979;50.800;4.904;2022-12-29T12:28:19;4.18;;;1.92;;
11839;SDS011;5979;50.800;4.904;2022-12-29T12:30:52;6.47;;;1.95;;
11839;SDS011;5979;50.800;4.904;2022-12-29T12:33:32;5.72;;;1.83;;
11839;SDS011;5979;50.800;4.904;2022-12-29T12:42:06;4.88;;;2.45;;
11839;SDS011;5979;50.800;4.904;2022-12-29T12:47:49;4.05;;;1.98;;
11839;SDS011;5979;50.800;4.904;2022-12-29T12:56:10;4.60;;;1.50;;
11839;SDS011;5979;50.800;4.904;2022-12-29T12:58:57;6.45;;;1.90;;
11839;SDS011;5979;50.800;4.904;2022-12-29T13:29:15;6.07;;;2.30;;
11839;SDS011;5979;50.800;4.904;2022-12-29T13:37:19;6.15;;;1.80;;
11839;SDS011;5979;50.800;4.904;2022-12-29T13:39:49;5.75;;;2.35;;
11839;SDS011;5979;50.800;4.904;2022-12-29T13:42:19;10.70;;;3.03;;
11839;SDS011;5979;50.800;4.904;2022-12-29T13:44:53;7.50;;;2.20;;
11839;SDS011;5979;50.800;4.904;2022-12-29T13:50:17;8.02;;;2.50;;
11839;SDS011;5979;50.800;4.904;2022-12-29T13:55:35;6.25;;;2.20;;
11839;SDS011;5979;50.800;4.904;2022-12-29T13:58:43;9.43;;;2.90;;
11839;SDS011;5979;50.800;4.904;2022-12-29T14:04:09;5.88;;;2.58;;
11839;SDS011;5979;50.800;4.904;2022-12-29T14:06:40;6.65;;;2.45;;
11839;SDS011;5979;50.800;4.904;2022-12-29T14:11:56;10.45;;;2.70;;
11839;SDS011;5979;50.800;4.904;2022-12-29T14:14:23;9.48;;;2.63;;
11839;SDS011;5979;50.800;4.904;2022-12-29T14:16:50;6.78;;;2.75;;
11839;SDS011;5979;50.800;4.904;2022-12-29T14:19:16;8.25;;;2.45;;
11839;SDS011;5979;50.800;4.904;2022-12-29T14:21:50;8.07;;;2.45;;
11839;SDS011;5979;50.800;4.904;2022-12-29T14:26:59;9.35;;;3.13;;
11839;SDS011;5979;50.800;4.904;2022-12-29T14:34:57;9.38;;;2.70;;
11839;SDS011;5979;50.800;4.904;2022-12-29T14:37:28;10.05;;;2.60;;
11839;SDS011;5979;50.800;4.904;2022-12-29T14:42:27;6.47;;;2.70;;
11839;SDS011;5979;50.800;4.904;2022-12-29T14:47:40;6.78;;;2.70;;
11839;SDS011;5979;50.800;4.904;2022-12-29T14:50:17;8.13;;;2.38;;
11839;SDS011;5979;50.800;4.904;2022-12-29T14:53:00;10.00;;;2.28;;
11839;SDS011;5979;50.800;4.904;2022-12-29T14:58:22;11.75;;;2.80;;
11839;SDS011;5979;50.800;4.904;2022-12-29T15:00:51;10.50;;;2.92;;
11839;SDS011;5979;50.800;4.904;2022-12-29T15:03:19;10.13;;;3.10;;
11839;SDS011;5979;50.800;4.904;2022-12-29T15:06:04;10.38;;;2.97;;
11839;SDS011;5979;50.800;4.904;2022-12-29T15:08:42;9.63;;;2.92;;
11839;SDS011;5979;50.800;4.904;2022-12-29T15:11:17;5.22;;;2.22;;
11839;SDS011;5979;50.800;4.904;2022-12-29T15:13:43;8.05;;;2.05;;
11839;SDS011;5979;50.800;4.904;2022-12-29T15:16:29;4.03;;;2.15;;
11839;SDS011;5979;50.800;4.904;2022-12-29T15:18:56;4.95;;;2.45;;
11839;SDS011;5979;50.800;4.904;2022-12-29T15:21:26;5.63;;;1.98;;
11839;SDS011;5979;50.800;4.904;2022-12-29T15:23:57;4.80;;;1.92;;
11839;SDS011;5979;50.800;4.904;2022-12-29T15:26:23;11.30;;;3.17;;
11839;SDS011;5979;50.800;4.904;2022-12-29T15:29:03;10.27;;;2.72;;
11839;SDS011;5979;50.800;4.904;2022-12-29T15:31:28;10.50;;;2.67;;
11839;SDS011;5979;50.800;4.904;2022-12-29T15:33:55;9.65;;;2.65;;
11839;SDS011;5979;50.800;4.904;2022-12-29T15:36:38;10.07;;;3.17;;
11839;SDS011;5979;50.800;4.904;2022-12-29T15:39:28;7.85;;;2.85;;
11839;SDS011;5979;50.800;4.904;2022-12-29T15:41:56;10.15;;;3.33;;
11839;SDS011;5979;50.800;4.904;2022-12-29T15:47:16;13.27;;;2.78;;
11839;SDS011;5979;50.800;4.904;2022-12-29T15:49:43;9.27;;;2.72;;
11839;SDS011;5979;50.800;4.904;2022-12-29T15:52:13;11.85;;;3.10;;
11839;SDS011;5979;50.800;4.904;2022-12-29T15:54:46;11.35;;;2.95;;
11839;SDS011;5979;50.800;4.904;2022-12-29T15:59:46;3.97;;;2.03;;
11839;SDS011;5979;50.800;4.904;2022-12-29T16:02:13;5.00;;;1.40;;
11839;SDS011;5979;50.800;4.904;2022-12-29T16:04:39;2.60;;;1.25;;
11839;SDS011;5979;50.800;4.904;2022-12-29T16:07:20;3.63;;;1.40;;
11839;SDS011;5979;50.800;4.904;2022-12-29T16:09:55;5.00;;;1.65;;
11839;SDS011;5979;50.800;4.904;2022-12-29T16:12:29;5.28;;;2.10;;
11839;SDS011;5979;50.800;4.904;2022-12-29T16:15:02;6.60;;;1.67;;
11839;SDS011;5979;50.800;4.904;2022-12-29T16:17:36;8.88;;;2.72;;
11839;SDS011;5979;50.800;4.904;2022-12-29T16:20:37;9.05;;;3.33;;
11839;SDS011;5979;50.800;4.904;2022-12-29T16:23:05;8.82;;;2.33;;
11839;SDS011;5979;50.800;4.904;2022-12-29T16:25:47;6.25;;;2.35;;
11839;SDS011;5979;50.800;4.904;2022-12-29T16:28:20;8.07;;;2.08;;
11839;SDS011;5979;50.800;4.904;2022-12-29T16:30:57;6.20;;;2.40;;
11839;SDS011;5979;50.800;4.904;2022-12-29T16:36:31;10.57;;;2.42;;
11839;SDS011;5979;50.800;4.904;2022-12-29T16:39:24;8.30;;;2.10;;
11839;SDS011;5979;50.800;4.904;2022-12-29T16:41:55;6.82;;;2.45;;
11839;SDS011;5979;50.800;4.904;2022-12-29T16:44:22;4.68;;;1.95;;
11839;SDS011;5979;50.800;4.904;2022-12-29T16:49:40;6.78;;;2.13;;
11839;SDS011;5979;50.800;4.904;2022-12-29T16:52:22;8.38;;;2.85;;
11839;SDS011;5979;50.800;4.904;2022-12-29T16:54:58;7.57;;;2.58;;
11839;SDS011;5979;50.800;4.904;2022-12-29T16:57:33;6.47;;;2.40;;
11839;SDS011;5979;50.800;4.904;2022-12-29T17:00:02;11.30;;;3.35;;
11839;SDS011;5979;50.800;4.904;2022-12-29T17:02:31;5.40;;;2.75;;
11839;SDS011;5979;50.800;4.904;2022-12-29T17:04:58;9.55;;;2.60;;
11839;SDS011;5979;50.800;4.904;2022-12-29T17:07:25;5.22;;;2.22;;
11839;SDS011;5979;50.800;4.904;2022-12-29T17:09:52;7.68;;;2.47;;
11839;SDS011;5979;50.800;4.904;2022-12-29T17:12:22;9.52;;;3.00;;
11839;SDS011;5979;50.800;4.904;2022-12-29T17:19:55;5.47;;;1.95;;
11839;SDS011;5979;50.800;4.904;2022-12-29T17:22:26;3.63;;;2.20;;
11839;SDS011;5979;50.800;4.904;2022-12-29T17:24:53;4.20;;;2.10;;
11839;SDS011;5979;50.800;4.904;2022-12-29T17:27:24;5.05;;;2.15;;
11839;SDS011;5979;50.800;4.904;2022-12-29T17:29:54;3.15;;;2.00;;
11839;SDS011;5979;50.800;4.904;2022-12-29T17:32:22;7.32;;;2.00;;
11839;SDS011;5979;50.800;4.904;2022-12-29T17:34:48;9.05;;;1.90;;
11839;SDS011;5979;50.800;4.904;2022-12-29T17:37:25;5.20;;;1.73;;
11839;SDS011;5979;50.800;4.904;2022-12-29T17:39:52;4.18;;;2.03;;
11839;SDS011;5979;50.800;4.904;2022-12-29T17:42:18;4.50;;;2.20;;
11839;SDS011;5979;50.800;4.904;2022-12-29T17:44:44;2.97;;;2.13;;
11839;SDS011;5979;50.800;4.904;2022-12-29T17:47:10;4.55;;;2.25;;
11839;SDS011;5979;50.800;4.904;2022-12-29T17:49:36;3.28;;;2.10;;
11839;SDS011;5979;50.800;4.904;2022-12-29T17:52:02;9.60;;;2.88;;
11839;SDS011;5979;50.800;4.904;2022-12-29T17:54:29;7.88;;;2.45;;
11839;SDS011;5979;50.800;4.904;2022-12-29T17:56:56;4.72;;;2.05;;
11839;SDS011;5979;50.800;4.904;2022-12-29T17:59:22;7.47;;;2.35;;
11839;SDS011;5979;50.800;4.904;2022-12-29T18:01:48;8.25;;;2.25;;
11839;SDS011;5979;50.800;4.904;2022-12-29T18:04:17;5.35;;;1.90;;
11839;SDS011;5979;50.800;4.904;2022-12-29T18:06:44;4.25;;;2.30;;
11839;SDS011;5979;50.800;4.904;2022-12-29T18:09:11;4.45;;;2.05;;
11839;SDS011;5979;50.800;4.904;2022-12-29T18:11:38;6.97;;;2.25;;
11839;SDS011;5979;50.800;4.904;2022-12-29T18:14:10;5.85;;;2.38;;
11839;SDS011;5979;50.800;4.904;2022-12-29T18:16:37;9.80;;;2.33;;
11839;SDS011;5979;50.800;4.904;2022-12-29T18:19:03;6.00;;;2.22;;
11839;SDS011;5979;50.800;4.904;2022-12-29T18:21:29;4.57;;;2.08;;
11839;SDS011;5979;50.800;4.904;2022-12-29T18:23:55;5.65;;;2.33;;
11839;SDS011;5979;50.800;4.904;2022-12-29T18:26:22;6.93;;;2.10;;
11839;SDS011;5979;50.800;4.904;2022-12-29T18:28:49;6.75;;;2.45;;